sensor_id;sensor_type;location;lat;lon;timestamp;pressure;altitude;pressure_sealevel;temperature;humidity
53719;BME280;39616;48.872;9.390;2023-07-29T00:01:35;97920.47;;;16.15;100.00
53719;BME280;39616;48.872;9.390;2023-07-29T00:04:05;97917.63;;;16.11;100.00
53719;BME280;39616;48.872;9.390;2023-07-29T00:06:36;97910.56;;;16.10;100.00
53719;BME280;39616;48.872;9.390;2023-07-29T00:09:06;97914.56;;;16.13;100.00
53719;BME280;39616;48.872;9.390;2023-07-29T00:11:37;97915.78;;;16.15;100.00
53719;BME280;39616;48.872;9.390;2023-07-29T00:14:07;97913.50;;;16.17;100.00
53719;BME280;39616;48.872;9.390;2023-07-29T00:16:37;97908.47;;;16.19;100.00
53719;BME280;39616;48.872;9.390;2023-07-29T00:19:08;97902.69;;;16.21;100.00
53719;BME280;39616;48.872;9.390;2023-07-29T00:21:38;97909.38;;;16.24;100.00
53719;BME280;39616;48.872;9.390;2023-07-29T00:24:08;97906.22;;;16.22;100.00
53719;BME280;39616;48.872;9.390;2023-07-29T00:26:39;97900.50;;;16.27;100.00
53719;BME280;39616;48.872;9.390;2023-07-29T00:29:09;97903.22;;;16.27;100.00
53719;BME280;39616;48.872;9.390;2023-07-29T00:31:39;97897.44;;;16.28;100.00
53719;BME280;39616;48.872;9.390;2023-07-29T00:34:09;97895.50;;;16.29;100.00
53719;BME280;39616;48.872;9.390;2023-07-29T00:36:40;97893.78;;;16.24;100.00
53719;BME280;39616;48.872;9.390;2023-07-29T00:39:10;97894.00;;;16.19;100.00
53719;BME280;39616;48.872;9.390;2023-07-29T00:41:40;97901.00;;;16.16;100.00
53719;BME280;39616;48.872;9.390;2023-07-29T00:44:11;97892.44;;;16.18;100.00
53719;BME280;39616;48.872;9.390;2023-07-29T00:46:41;97898.00;;;16.22;100.00
53719;BME280;39616;48.872;9.390;2023-07-29T00:49:12;97900.06;;;16.25;100.00
53719;BME280;39616;48.872;9.390;2023-07-29T00:51:42;97897.75;;;16.27;100.00
53719;BME280;39616;48.872;9.390;2023-07-29T00:54:13;97891.16;;;16.28;100.00
53719;BME280;39616;48.872;9.390;2023-07-29T00:56:43;97884.09;;;16.27;100.00
53719;BME280;39616;48.872;9.390;2023-07-29T00:59:14;97892.75;;;16.29;100.00
53719;BME280;39616;48.872;9.390;2023-07-29T01:01:44;97882.50;;;16.26;100.00
53719;BME280;39616;48.872;9.390;2023-07-29T01:04:14;97885.34;;;16.29;100.00
53719;BME280;39616;48.872;9.390;2023-07-29T01:06:58;97893.19;;;16.31;100.00
53719;BME280;39616;48.872;9.390;2023-07-29T01:12:48;97888.66;;;16.35;100.00
53719;BME280;39616;48.872;9.390;2023-07-29T01:15:28;97888.66;;;16.35;100.00
53719;BME280;39616;48.872;9.390;2023-07-29T01:18:07;97882.03;;;16.36;100.00
53719;BME280;39616;48.872;9.390;2023-07-29T01:20:40;97873.47;;;16.37;100.00
53719;BME280;39616;48.872;9.390;2023-07-29T01:23:12;97878.94;;;16.37;100.00
53719;BME280;39616;48.872;9.390;2023-07-29T01:25:42;97867.56;;;16.35;100.00
53719;BME280;39616;48.872;9.390;2023-07-29T01:28:13;97870.63;;;16.34;100.00
53719;BME280;39616;48.872;9.390;2023-07-29T01:30:43;97863.56;;;16.33;100.00
53719;BME280;39616;48.872;9.390;2023-07-29T01:33:23;97861.19;;;16.31;100.00
53719;BME280;39616;48.872;9.390;2023-07-29T01:36:02;97857.19;;;16.29;100.00
53719;BME280;39616;48.872;9.390;2023-07-29T01:38:33;97860.38;;;16.31;100.00
53719;BME280;39616;48.872;9.390;2023-07-29T01:41:07;97856.84;;;16.30;100.00
53719;BME280;39616;48.872;9.390;2023-07-29T01:43:38;97857.19;;;16.29;100.00
53719;BME280;39616;48.872;9.390;2023-07-29T01:46:14;97866.19;;;16.29;100.00
53719;BME280;39616;48.872;9.390;2023-07-29T01:48:44;97858.78;;;16.30;100.00
53719;BME280;39616;48.872;9.390;2023-07-29T01:51:15;97861.88;;;16.28;100.00
53719;BME280;39616;48.872;9.390;2023-07-29T01:53:45;97854.00;;;16.27;100.00
53719;BME280;39616;48.872;9.390;2023-07-29T01:56:15;97857.19;;;16.29;100.00
53719;BME280;39616;48.872;9.390;2023-07-29T01:58:45;97846.16;;;16.25;100.00
53719;BME280;39616;48.872;9.390;2023-07-29T02:01:16;97846.94;;;16.26;100.00
53719;BME280;39616;48.872;9.390;2023-07-29T02:03:46;97851.63;;;16.25;100.00
53719;BME280;39616;48.872;9.390;2023-07-29T02:06:16;97854.00;;;16.27;100.00
53719;BME280;39616;48.872;9.390;2023-07-29T02:08:47;97840.78;;;16.29;100.00
53719;BME280;39616;48.872;9.390;2023-07-29T02:11:17;97843.50;;;16.29;100.00
53719;BME280;39616;48.872;9.390;2023-07-29T02:13:50;97845.91;;;16.30;100.00
53719;BME280;39616;48.872;9.390;2023-07-29T02:16:21;97842.47;;;16.33;100.00
53719;BME280;39616;48.872;9.390;2023-07-29T02:18:52;97847.94;;;16.33;100.00
53719;BME280;39616;48.872;9.390;2023-07-29T02:21:23;97833.94;;;16.35;100.00
53719;BME280;39616;48.872;9.390;2023-07-29T02:23:53;97846.00;;;16.34;100.00
53719;BME280;39616;48.872;9.390;2023-07-29T02:26:23;97842.47;;;16.33;100.00
53719;BME280;39616;48.872;9.390;2023-07-29T02:28:53;97835.75;;;16.31;100.00
53719;BME280;39616;48.872;9.390;2023-07-29T02:31:24;97840.78;;;16.29;100.00
53719;BME280;39616;48.872;9.390;2023-07-29T02:33:55;97843.06;;;16.27;100.00
53719;BME280;39616;48.872;9.390;2023-07-29T02:36:26;97839.09;;;16.24;100.00
53719;BME280;39616;48.872;9.390;2023-07-29T02:38:56;97841.34;;;16.22;100.00
53719;BME280;39616;48.872;9.390;2023-07-29T02:41:26;97831.47;;;16.17;100.00
53719;BME280;39616;48.872;9.390;2023-07-29T02:43:56;97825.53;;;16.15;100.00
53719;BME280;39616;48.872;9.390;2023-07-29T02:46:27;97829.41;;;16.14;100.00
53719;BME280;39616;48.872;9.390;2023-07-29T02:48:57;97819.94;;;16.12;100.00
53719;BME280;39616;48.872;9.390;2023-07-29T02:51:27;97824.63;;;16.11;100.00
53719;BME280;39616;48.872;9.390;2023-07-29T02:53:58;97820.75;;;16.12;100.00
53719;BME280;39616;48.872;9.390;2023-07-29T02:56:28;97818.00;;;16.12;100.00
53719;BME280;39616;48.872;9.390;2023-07-29T02:58:58;97820.75;;;16.12;100.00
53719;BME280;39616;48.872;9.390;2023-07-29T03:01:29;97824.72;;;16.15;100.00
53719;BME280;39616;48.872;9.390;2023-07-29T03:04:00;97814.59;;;16.15;100.00
53719;BME280;39616;48.872;9.390;2023-07-29T03:06:31;97811.53;;;16.17;100.00
53719;BME280;39616;48.872;9.390;2023-07-29T03:09:01;97810.38;;;16.18;100.00
53719;BME280;39616;48.872;9.390;2023-07-29T03:11:31;97811.16;;;16.18;100.00
53719;BME280;39616;48.872;9.390;2023-07-29T03:14:01;97803.06;;;16.22;100.00
53719;BME280;39616;48.872;9.390;2023-07-29T03:16:32;97797.59;;;16.22;100.00
53719;BME280;39616;48.872;9.390;2023-07-29T03:19:02;97788.59;;;16.22;100.00
53719;BME280;39616;48.872;9.390;2023-07-29T03:21:32;97787.78;;;16.21;100.00
53719;BME280;39616;48.872;9.390;2023-07-29T03:24:03;97792.00;;;16.18;100.00
53719;BME280;39616;48.872;9.390;2023-07-29T03:26:33;97784.84;;;16.14;100.00
53719;BME280;39616;48.872;9.390;2023-07-29T03:29:03;97786.22;;;16.08;100.00
53719;BME280;39616;48.872;9.390;2023-07-29T03:31:34;97782.94;;;16.02;100.00
53719;BME280;39616;48.872;9.390;2023-07-29T03:34:04;97779.75;;;16.00;100.00
53719;BME280;39616;48.872;9.390;2023-07-29T03:36:34;97784.69;;;15.94;100.00
53719;BME280;39616;48.872;9.390;2023-07-29T03:39:05;97784.22;;;15.92;100.00
53719;BME280;39616;48.872;9.390;2023-07-29T03:41:35;97787.63;;;15.89;100.00
53719;BME280;39616;48.872;9.390;2023-07-29T03:44:05;97791.63;;;15.92;100.00
53719;BME280;39616;48.872;9.390;2023-07-29T03:46:35;97790.94;;;15.95;100.00
53719;BME280;39616;48.872;9.390;2023-07-29T03:49:06;97799.56;;;15.97;100.00
53719;BME280;39616;48.872;9.390;2023-07-29T03:51:36;97803.56;;;16.00;100.00
53719;BME280;39616;48.872;9.390;2023-07-29T03:54:06;97798.88;;;16.00;100.00
53719;BME280;39616;48.872;9.390;2023-07-29T03:56:36;97797.06;;;16.04;100.00
53719;BME280;39616;48.872;9.390;2023-07-29T03:59:08;97795.91;;;16.05;100.00
53719;BME280;39616;48.872;9.390;2023-07-29T04:01:38;97790.22;;;16.10;100.00
53719;BME280;39616;48.872;9.390;2023-07-29T04:04:08;97791.81;;;16.11;100.00
53719;BME280;39616;48.872;9.390;2023-07-29T04:06:39;97785.19;;;16.12;100.00
53719;BME280;39616;48.872;9.390;2023-07-29T04:09:09;97788.03;;;16.16;100.00
53719;BME280;39616;48.872;9.390;2023-07-29T04:11:39;97788.13;;;16.19;100.00
53719;BME280;39616;48.872;9.390;2023-07-29T04:14:10;97790.53;;;16.21;100.00
53719;BME280;39616;48.872;9.390;2023-07-29T04:16:40;97810.59;;;16.25;100.00
53719;BME280;39616;48.872;9.390;2023-07-29T04:19:10;97811.38;;;16.26;100.00
53719;BME280;39616;48.872;9.390;2023-07-29T04:21:41;97804.75;;;16.27;100.00
53719;BME280;39616;48.872;9.390;2023-07-29T04:24:11;97792.13;;;16.22;100.00
53719;BME280;39616;48.872;9.390;2023-07-29T04:26:41;97792.13;;;16.22;100.00
53719;BME280;39616;48.872;9.390;2023-07-29T04:29:12;97789.38;;;16.22;100.00
53719;BME280;39616;48.872;9.390;2023-07-29T04:31:42;97796.53;;;16.27;100.00
53719;BME280;39616;48.872;9.390;2023-07-29T04:34:12;97791.53;;;16.29;100.00
53719;BME280;39616;48.872;9.390;2023-07-29T04:36:43;97795.84;;;16.30;100.00
53719;BME280;39616;48.872;9.390;2023-07-29T04:39:13;97798.25;;;16.31;100.00
53719;BME280;39616;48.872;9.390;2023-07-29T04:41:43;97803.84;;;16.35;100.00
53719;BME280;39616;48.872;9.390;2023-07-29T04:44:14;97803.03;;;16.34;100.00
53719;BME280;39616;48.872;9.390;2023-07-29T04:46:44;97804.16;;;16.33;100.00
53719;BME280;39616;48.872;9.390;2023-07-29T04:49:14;97802.22;;;16.34;100.00
53719;BME280;39616;48.872;9.390;2023-07-29T04:51:45;97801.78;;;16.32;100.00
53719;BME280;39616;48.872;9.390;2023-07-29T04:54:15;97804.97;;;16.34;100.00
53719;BME280;39616;48.872;9.390;2023-07-29T04:56:45;97828.78;;;16.33;100.00
53719;BME280;39616;48.872;9.390;2023-07-29T04:59:15;97838.47;;;16.31;100.00
53719;BME280;39616;48.872;9.390;2023-07-29T05:01:46;97835.41;;;16.32;100.00
53719;BME280;39616;48.872;9.390;2023-07-29T05:04:17;97845.31;;;16.37;100.00
53719;BME280;39616;48.872;9.390;2023-07-29T05:06:47;97856.94;;;16.34;100.00
53719;BME280;39616;48.872;9.390;2023-07-29T05:09:19;97851.81;;;16.32;100.00
53719;BME280;39616;48.872;9.390;2023-07-29T05:11:50;97851.81;;;16.32;100.00
53719;BME280;39616;48.872;9.390;2023-07-29T05:14:20;97848.41;;;16.35;100.00
53719;BME280;39616;48.872;9.390;2023-07-29T05:16:50;97831.53;;;16.33;100.00
53719;BME280;39616;48.872;9.390;2023-07-29T05:19:21;97833.94;;;16.35;100.00
53719;BME280;39616;48.872;9.390;2023-07-29T05:21:51;97817.94;;;16.37;100.00
53719;BME280;39616;48.872;9.390;2023-07-29T05:24:21;97813.28;;;16.37;100.00
53719;BME280;39616;48.872;9.390;2023-07-29T05:26:53;97813.84;;;16.43;100.00
53719;BME280;39616;48.872;9.390;2023-07-29T05:29:23;97804.94;;;16.46;100.00
53719;BME280;39616;48.872;9.390;2023-07-29T05:31:53;97796.22;;;16.56;100.00
53719;BME280;39616;48.872;9.390;2023-07-29T05:34:24;97809.88;;;16.69;100.00
53719;BME280;39616;48.872;9.390;2023-07-29T05:36:54;97791.25;;;16.74;100.00
53719;BME280;39616;48.872;9.390;2023-07-29T05:39:24;97806.13;;;16.89;100.00
53719;BME280;39616;48.872;9.390;2023-07-29T05:41:55;97811.38;;;16.94;100.00
53719;BME280;39616;48.872;9.390;2023-07-29T05:44:25;97816.84;;;16.94;100.00
53719;BME280;39616;48.872;9.390;2023-07-29T05:46:56;97812.59;;;16.97;100.00
53719;BME280;39616;48.872;9.390;2023-07-29T05:49:26;97812.69;;;17.00;100.00
53719;BME280;39616;48.872;9.390;2023-07-29T05:51:57;97814.03;;;17.06;100.00
53719;BME280;39616;48.872;9.390;2023-07-29T05:54:27;97807.50;;;17.11;100.00
53719;BME280;39616;48.872;9.390;2023-07-29T05:56:57;97813.53;;;17.17;100.00
53719;BME280;39616;48.872;9.390;2023-07-29T05:59:27;97820.31;;;17.23;100.00
53719;BME280;39616;48.872;9.390;2023-07-29T06:01:59;97813.53;;;17.32;100.00
53719;BME280;39616;48.872;9.390;2023-07-29T06:04:29;97807.88;;;17.41;100.00
53719;BME280;39616;48.872;9.390;2023-07-29T06:06:59;97806.63;;;17.54;100.00
53719;BME280;39616;48.872;9.390;2023-07-29T06:09:30;97797.34;;;17.75;100.00
53719;BME280;39616;48.872;9.390;2023-07-29T06:12:00;97796.00;;;17.84;100.00
53719;BME280;39616;48.872;9.390;2023-07-29T06:14:31;97787.06;;;17.88;100.00
53719;BME280;39616;48.872;9.390;2023-07-29T06:17:01;97785.72;;;17.97;100.00
53719;BME280;39616;48.872;9.390;2023-07-29T06:19:31;97778.94;;;18.10;100.00
53719;BME280;39616;48.872;9.390;2023-07-29T06:22:02;97782.09;;;18.28;100.00
53719;BME280;39616;48.872;9.390;2023-07-29T06:24:32;97792.06;;;18.56;100.00
53719;BME280;39616;48.872;9.390;2023-07-29T06:27:06;97791.84;;;18.65;100.00
53719;BME280;39616;48.872;9.390;2023-07-29T06:29:36;97791.06;;;18.64;100.00
53719;BME280;39616;48.872;9.390;2023-07-29T06:32:06;97789.09;;;18.65;100.00
53719;BME280;39616;48.872;9.390;2023-07-29T06:34:37;97785.25;;;18.69;100.00
53719;BME280;39616;48.872;9.390;2023-07-29T06:37:07;97799.63;;;18.63;100.00
53719;BME280;39616;48.872;9.390;2023-07-29T06:39:37;97791.78;;;18.61;100.00
53719;BME280;39616;48.872;9.390;2023-07-29T06:42:08;97794.13;;;18.63;100.00
53719;BME280;39616;48.872;9.390;2023-07-29T06:44:38;97793.88;;;18.68;100.00
53719;BME280;39616;48.872;9.390;2023-07-29T06:47:08;97797.66;;;18.79;100.00
53719;BME280;39616;48.872;9.390;2023-07-29T06:49:39;97798.91;;;18.85;100.00
53719;BME280;39616;48.872;9.390;2023-07-29T06:52:09;97797.47;;;18.91;100.00
53719;BME280;39616;48.872;9.390;2023-07-29T06:54:39;97805.31;;;18.89;100.00
53719;BME280;39616;48.872;9.390;2023-07-29T06:57:09;97804.31;;;18.78;100.00
53719;BME280;39616;48.872;9.390;2023-07-29T06:59:40;97815.56;;;18.73;100.00
53719;BME280;39616;48.872;9.390;2023-07-29T07:02:10;97814.59;;;18.65;100.00
53719;BME280;39616;48.872;9.390;2023-07-29T07:04:40;97811.63;;;18.54;100.00
53719;BME280;39616;48.872;9.390;2023-07-29T07:07:11;97817.41;;;18.49;100.00
53719;BME280;39616;48.872;9.390;2023-07-29T07:09:41;97818.00;;;18.39;100.00
53719;BME280;39616;48.872;9.390;2023-07-29T07:12:11;97831.94;;;18.30;100.00
53719;BME280;39616;48.872;9.390;2023-07-29T07:14:42;97829.44;;;18.25;100.00
53719;BME280;39616;48.872;9.390;2023-07-29T07:17:12;97838.69;;;18.17;100.00
53719;BME280;39616;48.872;9.390;2023-07-29T07:19:42;97842.44;;;18.09;100.00
53719;BME280;39616;48.872;9.390;2023-07-29T07:22:13;97850.56;;;18.05;100.00
53719;BME280;39616;48.872;9.390;2023-07-29T07:24:44;97851.19;;;17.99;100.00
53719;BME280;39616;48.872;9.390;2023-07-29T07:27:14;97862.47;;;17.94;100.00
53719;BME280;39616;48.872;9.390;2023-07-29T07:29:45;97860.06;;;17.92;100.00
53719;BME280;39616;48.872;9.390;2023-07-29T07:32:15;97866.53;;;17.84;100.00
53719;BME280;39616;48.872;9.390;2023-07-29T07:34:45;97854.69;;;17.80;100.00
53719;BME280;39616;48.872;9.390;2023-07-29T07:37:16;97853.44;;;17.77;100.00
53719;BME280;39616;48.872;9.390;2023-07-29T07:39:46;97842.72;;;17.72;100.00
53719;BME280;39616;48.872;9.390;2023-07-29T07:42:16;97851.06;;;17.76;100.00
53719;BME280;39616;48.872;9.390;2023-07-29T07:44:47;97842.63;;;17.84;100.00
53719;BME280;39616;48.872;9.390;2023-07-29T07:47:17;97851.56;;;17.97;100.00
53719;BME280;39616;48.872;9.390;2023-07-29T07:49:47;97858.50;;;18.10;100.00
53719;BME280;39616;48.872;9.390;2023-07-29T07:52:20;97859.97;;;18.04;100.00
53719;BME280;39616;48.872;9.390;2023-07-29T07:54:54;97849.00;;;18.04;100.00
53719;BME280;39616;48.872;9.390;2023-07-29T07:57:24;97856.84;;;18.06;100.00
53719;BME280;39616;48.872;9.390;2023-07-29T07:59:55;97856.56;;;18.11;100.00
53719;BME280;39616;48.872;9.390;2023-07-29T08:02:25;97851.59;;;18.17;100.00
53719;BME280;39616;48.872;9.390;2023-07-29T08:04:55;97838.75;;;18.21;100.00
53719;BME280;39616;48.872;9.390;2023-07-29T08:07:26;97844.50;;;18.31;100.00
53719;BME280;39616;48.872;9.390;2023-07-29T08:09:56;97850.22;;;18.62;100.00
53719;BME280;39616;48.872;9.390;2023-07-29T08:12:26;97840.41;;;18.61;100.00
53719;BME280;39616;48.872;9.390;2023-07-29T08:14:57;97838.13;;;18.82;100.00
53719;BME280;39616;48.872;9.390;2023-07-29T08:17:27;97835.78;;;18.84;100.00
53719;BME280;39616;48.872;9.390;2023-07-29T08:19:57;97850.47;;;18.92;100.00
53719;BME280;39616;48.872;9.390;2023-07-29T08:22:27;97848.16;;;18.94;100.00
53719;BME280;39616;48.872;9.390;2023-07-29T08:24:58;97866.16;;;18.91;100.00
53719;BME280;39616;48.872;9.390;2023-07-29T08:27:28;97861.66;;;19.02;100.00
53719;BME280;39616;48.872;9.390;2023-07-29T08:29:58;97870.56;;;19.61;100.00
53719;BME280;39616;48.872;9.390;2023-07-29T08:32:28;97864.78;;;20.16;100.00
53719;BME280;39616;48.872;9.390;2023-07-29T08:34:59;97868.59;;;20.34;100.00
53719;BME280;39616;48.872;9.390;2023-07-29T08:37:29;97868.81;;;20.48;100.00
53719;BME280;39616;48.872;9.390;2023-07-29T08:39:59;97873.09;;;20.46;100.00
53719;BME280;39616;48.872;9.390;2023-07-29T08:42:32;97874.56;;;20.40;100.00
53719;BME280;39616;48.872;9.390;2023-07-29T08:45:06;97883.22;;;20.38;100.00
53719;BME280;39616;48.872;9.390;2023-07-29T08:47:38;97868.66;;;20.38;100.00
53719;BME280;39616;48.872;9.390;2023-07-29T08:50:08;97869.03;;;20.36;100.00
53719;BME280;39616;48.872;9.390;2023-07-29T08:52:40;97864.59;;;20.55;100.00
53719;BME280;39616;48.872;9.390;2023-07-29T08:55:12;97869.88;;;21.34;100.00
53719;BME280;39616;48.872;9.390;2023-07-29T08:57:42;97861.84;;;22.11;100.00
53719;BME280;39616;48.872;9.390;2023-07-29T09:00:13;97866.59;;;22.73;100.00
53719;BME280;39616;48.872;9.390;2023-07-29T09:02:44;97855.25;;;22.96;100.00
53719;BME280;39616;48.872;9.390;2023-07-29T09:05:14;97872.03;;;22.58;99.40
53719;BME280;39616;48.872;9.390;2023-07-29T09:07:45;97866.31;;;22.96;99.02
53719;BME280;39616;48.872;9.390;2023-07-29T09:10:16;97870.34;;;23.27;99.76
53719;BME280;39616;48.872;9.390;2023-07-29T09:12:46;97868.06;;;24.00;91.81
53719;BME280;39616;48.872;9.390;2023-07-29T09:15:27;97870.31;;;24.77;89.99
53719;BME280;39616;48.872;9.390;2023-07-29T09:17:59;97868.19;;;25.17;83.13
53719;BME280;39616;48.872;9.390;2023-07-29T09:20:29;97865.50;;;24.88;84.48
53719;BME280;39616;48.872;9.390;2023-07-29T09:23:00;97853.63;;;24.88;84.58
53719;BME280;39616;48.872;9.390;2023-07-29T09:25:30;97852.06;;;24.90;82.12
53719;BME280;39616;48.872;9.390;2023-07-29T09:28:01;97858.06;;;25.48;82.46
53719;BME280;39616;48.872;9.390;2023-07-29T09:30:32;97855.88;;;25.81;80.24
53719;BME280;39616;48.872;9.390;2023-07-29T09:33:02;97855.03;;;26.32;78.07
53719;BME280;39616;48.872;9.390;2023-07-29T09:35:34;97854.75;;;26.61;73.80
53719;BME280;39616;48.872;9.390;2023-07-29T09:38:05;97862.91;;;27.40;72.23
53719;BME280;39616;48.872;9.390;2023-07-29T09:40:38;97859.19;;;26.89;71.29
53719;BME280;39616;48.872;9.390;2023-07-29T09:43:09;97854.31;;;26.96;67.52
53719;BME280;39616;48.872;9.390;2023-07-29T09:45:39;97847.63;;;27.79;70.22
53719;BME280;39616;48.872;9.390;2023-07-29T09:48:10;97850.25;;;27.62;68.60
53719;BME280;39616;48.872;9.390;2023-07-29T09:50:41;97848.66;;;28.12;71.96
53719;BME280;39616;48.872;9.390;2023-07-29T09:53:11;97851.53;;;28.72;64.84
53719;BME280;39616;48.872;9.390;2023-07-29T09:55:46;97843.72;;;28.20;66.47
53719;BME280;39616;48.872;9.390;2023-07-29T09:58:21;97841.56;;;28.07;64.93
53719;BME280;39616;48.872;9.390;2023-07-29T10:00:55;97842.47;;;27.23;71.10
53719;BME280;39616;48.872;9.390;2023-07-29T10:03:26;97820.38;;;26.47;70.58
53719;BME280;39616;48.872;9.390;2023-07-29T10:06:01;97814.78;;;26.06;69.78
53719;BME280;39616;48.872;9.390;2023-07-29T10:08:32;97811.22;;;26.06;71.97
53719;BME280;39616;48.872;9.390;2023-07-29T10:11:10;97831.25;;;26.27;73.56
53719;BME280;39616;48.872;9.390;2023-07-29T10:13:40;97835.25;;;25.26;73.23
53719;BME280;39616;48.872;9.390;2023-07-29T10:16:11;97861.53;;;24.93;72.79
53719;BME280;39616;48.872;9.390;2023-07-29T10:18:42;97906.09;;;22.77;76.12
53719;BME280;39616;48.872;9.390;2023-07-29T10:21:14;97915.56;;;20.71;87.79
53719;BME280;39616;48.872;9.390;2023-07-29T10:23:47;97899.72;;;19.85;100.00
53719;BME280;39616;48.872;9.390;2023-07-29T10:26:20;97914.13;;;19.36;100.00
53719;BME280;39616;48.872;9.390;2023-07-29T10:28:52;97908.56;;;19.33;100.00
53719;BME280;39616;48.872;9.390;2023-07-29T10:31:24;97896.38;;;18.91;100.00
53719;BME280;39616;48.872;9.390;2023-07-29T10:33:55;97907.78;;;19.13;100.00
53719;BME280;39616;48.872;9.390;2023-07-29T10:36:25;97911.03;;;19.38;100.00
53719;BME280;39616;48.872;9.390;2023-07-29T10:38:56;97889.19;;;19.68;100.00
53719;BME280;39616;48.872;9.390;2023-07-29T10:41:59;97886.25;;;20.03;100.00
53719;BME280;39616;48.872;9.390;2023-07-29T10:44:56;97889.50;;;20.65;100.00
53719;BME280;39616;48.872;9.390;2023-07-29T10:47:28;97885.97;;;20.38;100.00
53719;BME280;39616;48.872;9.390;2023-07-29T10:49:59;97892.13;;;20.55;100.00
53719;BME280;39616;48.872;9.390;2023-07-29T10:52:40;97891.94;;;20.70;100.00
53719;BME280;39616;48.872;9.390;2023-07-29T10:55:25;97892.50;;;21.51;100.00
53719;BME280;39616;48.872;9.390;2023-07-29T11:00:36;97882.19;;;21.88;94.81
53719;BME280;39616;48.872;9.390;2023-07-29T11:03:07;97878.78;;;22.61;92.11
53719;BME280;39616;48.872;9.390;2023-07-29T11:05:46;97878.09;;;22.89;90.43
53719;BME280;39616;48.872;9.390;2023-07-29T11:08:36;97876.81;;;22.65;89.62
53719;BME280;39616;48.872;9.390;2023-07-29T11:11:08;97873.41;;;22.97;88.32
53719;BME280;39616;48.872;9.390;2023-07-29T11:13:41;97859.16;;;22.91;86.75
53719;BME280;39616;48.872;9.390;2023-07-29T11:16:15;97872.69;;;23.18;83.24
53719;BME280;39616;48.872;9.390;2023-07-29T11:18:46;97873.91;;;23.38;83.43
53719;BME280;39616;48.872;9.390;2023-07-29T11:21:17;97860.84;;;23.21;81.80
53719;BME280;39616;48.872;9.390;2023-07-29T11:23:48;97882.97;;;23.17;80.54
53719;BME280;39616;48.872;9.390;2023-07-29T11:26:18;97871.53;;;23.33;79.99
53719;BME280;39616;48.872;9.390;2023-07-29T11:28:49;97874.31;;;23.40;78.74
53719;BME280;39616;48.872;9.390;2023-07-29T11:31:21;97870.38;;;23.48;79.85
53719;BME280;39616;48.872;9.390;2023-07-29T11:33:51;97865.66;;;23.52;78.33
53719;BME280;39616;48.872;9.390;2023-07-29T11:36:22;97868.78;;;23.29;78.47
53719;BME280;39616;48.872;9.390;2023-07-29T11:38:54;97866.44;;;23.63;77.86
53719;BME280;39616;48.872;9.390;2023-07-29T11:41:24;97865.63;;;23.31;77.59
53719;BME280;39616;48.872;9.390;2023-07-29T11:43:55;97853.44;;;23.71;77.94
53719;BME280;39616;48.872;9.390;2023-07-29T11:46:25;97863.25;;;23.36;75.31
53719;BME280;39616;48.872;9.390;2023-07-29T11:48:55;97854.56;;;23.42;74.86
53719;BME280;39616;48.872;9.390;2023-07-29T11:51:26;97850.63;;;23.43;76.14
53719;BME280;39616;48.872;9.390;2023-07-29T11:53:56;97842.75;;;23.95;80.35
53719;BME280;39616;48.872;9.390;2023-07-29T11:56:26;97853.06;;;23.69;76.21
53719;BME280;39616;48.872;9.390;2023-07-29T11:58:57;97849.09;;;23.92;76.31
53719;BME280;39616;48.872;9.390;2023-07-29T12:01:27;97839.22;;;23.83;74.54
53719;BME280;39616;48.872;9.390;2023-07-29T12:03:58;97847.50;;;23.98;74.46
53719;BME280;39616;48.872;9.390;2023-07-29T12:06:29;97837.59;;;23.90;74.96
53719;BME280;39616;48.872;9.390;2023-07-29T12:09:01;97836.00;;;24.17;73.52
53719;BME280;39616;48.872;9.390;2023-07-29T12:11:32;97839.19;;;24.08;71.92
53719;BME280;39616;48.872;9.390;2023-07-29T12:14:02;97834.47;;;23.91;72.31
53719;BME280;39616;48.872;9.390;2023-07-29T12:16:40;97841.16;;;24.15;71.10
53719;BME280;39616;48.872;9.390;2023-07-29T12:19:14;97830.84;;;24.41;69.67
53719;BME280;39616;48.872;9.390;2023-07-29T12:21:45;97829.19;;;24.61;69.12
53719;BME280;39616;48.872;9.390;2023-07-29T12:24:15;97825.22;;;24.62;69.52
53719;BME280;39616;48.872;9.390;2023-07-29T12:26:46;97830.69;;;24.83;69.70
53719;BME280;39616;48.872;9.390;2023-07-29T12:29:19;97831.50;;;24.77;67.82
53719;BME280;39616;48.872;9.390;2023-07-29T12:32:00;97825.75;;;25.23;67.99
53719;BME280;39616;48.872;9.390;2023-07-29T12:34:31;97823.75;;;25.27;66.41
53719;BME280;39616;48.872;9.390;2023-07-29T12:37:02;97823.97;;;25.51;68.74
53719;BME280;39616;48.872;9.390;2023-07-29T12:39:35;97817.72;;;25.36;64.60
53719;BME280;39616;48.872;9.390;2023-07-29T12:42:06;97814.22;;;25.25;66.62
53719;BME280;39616;48.872;9.390;2023-07-29T12:44:37;97809.72;;;25.49;65.42
53719;BME280;39616;48.872;9.390;2023-07-29T12:47:08;97807.88;;;25.28;64.20
53719;BME280;39616;48.872;9.390;2023-07-29T12:49:39;97812.34;;;25.11;63.67
53719;BME280;39616;48.872;9.390;2023-07-29T12:52:09;97812.16;;;25.40;62.13
53719;BME280;39616;48.872;9.390;2023-07-29T12:54:40;97809.44;;;25.85;62.33
53719;BME280;39616;48.872;9.390;2023-07-29T12:57:10;97814.22;;;26.25;60.90
53719;BME280;39616;48.872;9.390;2023-07-29T12:59:40;97807.59;;;26.12;59.95
53719;BME280;39616;48.872;9.390;2023-07-29T13:02:11;97810.16;;;25.96;58.11
53719;BME280;39616;48.872;9.390;2023-07-29T13:04:41;97802.91;;;26.78;57.06
53719;BME280;39616;48.872;9.390;2023-07-29T13:07:11;97806.22;;;26.65;53.09
53719;BME280;39616;48.872;9.390;2023-07-29T13:09:42;97821.28;;;26.34;53.82
53719;BME280;39616;48.872;9.390;2023-07-29T13:12:12;97812.56;;;25.90;52.79
53719;BME280;39616;48.872;9.390;2023-07-29T13:14:43;97810.22;;;25.89;52.39
53719;BME280;39616;48.872;9.390;2023-07-29T13:17:13;97804.78;;;25.71;54.10
53719;BME280;39616;48.872;9.390;2023-07-29T13:19:43;97797.56;;;25.77;54.31